Time;durP1;ratioP1;P1;durP2;ratioP2;P2;SDS_P1;SDS_P2;PMS_P1;PMS_P2;Temp;Humidity;BMP_temperature;BMP_pressure;BME280_temperature;BME280_humidity;BME280_pressure;Samples;Min_cycle;Max_cycle;Signal;HPM_P1;HPM_P2
2021/01/16 00:00:35;;;;;;;17.97;9.70;;;-3.20;52.90;;;;;;5073290;28;20135;-71
2021/01/16 00:03:01;;;;;;;16.53;9.07;;;-3.20;53.00;;;;;;5073215;28;20043;-71
2021/01/16 00:05:30;;;;;;;20.77;9.60;;;-3.20;53.10;;;;;;5073091;28;20042;-71
2021/01/16 00:08:01;;;;;;;20.77;9.90;;;-3.20;52.90;;;;;;5073101;28;20408;-72
2021/01/16 00:10:28;;;;;;;22.17;9.83;;;-3.20;53.10;;;;;;5073220;28;20028;-70
2021/01/16 00:12:54;;;;;;;17.83;9.20;;;-3.20;53.10;;;;;;5074099;28;20051;-70
2021/01/16 00:15:21;;;;;;;18.53;8.73;;;-3.20;53.20;;;;;;5072975;28;20050;-72
2021/01/16 00:17:57;;;;;;;19.97;9.53;;;-3.30;53.10;;;;;;5073008;28;20036;-69
2021/01/16 00:20:23;;;;;;;18.57;8.83;;;-3.30;53.10;;;;;;5072915;28;20535;-70
2021/01/16 00:22:51;;;;;;;18.03;9.00;;;-3.30;53.00;;;;;;5072799;28;20025;-71
2021/01/16 00:25:17;;;;;;;16.90;9.07;;;-3.30;53.10;;;;;;5072780;28;20497;-70
2021/01/16 00:27:44;;;;;;;16.67;8.63;;;-3.30;53.10;;;;;;5056249;28;20040;-70
2021/01/16 00:30:11;;;;;;;16.43;9.43;;;-3.30;53.20;;;;;;5072359;28;20032;-73
2021/01/16 00:32:38;;;;;;;19.40;9.10;;;-3.30;53.20;;;;;;5072669;28;20032;-71
2021/01/16 00:35:17;;;;;;;17.97;8.87;;;-3.30;53.20;;;;;;5072470;28;20040;-72
2021/01/16 00:37:44;;;;;;;17.10;9.47;;;-3.20;53.10;;;;;;5072305;28;20450;-71
2021/01/16 00:40:15;;;;;;;18.87;9.10;;;-3.20;53.00;;;;;;5072276;28;20421;-70
2021/01/16 00:42:50;;;;;;;16.27;8.57;;;-3.30;53.00;;;;;;5072269;28;20035;-71
2021/01/16 00:45:20;;;;;;;16.77;8.63;;;-3.20;53.10;;;;;;5072617;28;20630;-71
2021/01/16 00:47:50;;;;;;;16.93;8.67;;;-3.20;53.10;;;;;;5071702;28;20097;-70
2021/01/16 00:50:20;;;;;;;21.03;9.17;;;-3.20;53.10;;;;;;5055870;28;20040;-73
2021/01/16 00:52:57;;;;;;;18.47;8.33;;;-3.20;53.60;;;;;;5072038;28;20052;-71
2021/01/16 00:55:27;;;;;;;19.73;9.60;;;-3.20;52.90;;;;;;5072241;28;20404;-70
2021/01/16 00:57:54;;;;;;;16.70;9.70;;;-3.20;52.90;;;;;;5055640;28;20036;-72
2021/01/16 01:00:28;;;;;;;16.07;8.70;;;-3.20;52.90;;;;;;5056081;28;20058;-73
2021/01/16 01:02:56;;;;;;;16.80;9.33;;;-3.20;52.90;;;;;;5055914;28;20033;-71
2021/01/16 01:05:23;;;;;;;17.20;8.43;;;-3.30;53.00;;;;;;5073245;28;20034;-74
2021/01/16 01:07:51;;;;;;;17.77;9.03;;;-3.20;52.90;;;;;;5071921;28;20547;-72
2021/01/16 01:10:33;;;;;;;18.20;8.43;;;-3.20;52.90;;;;;;5073076;28;20489;-70
2021/01/16 01:13:00;;;;;;;16.90;9.80;;;-3.20;52.90;;;;;;5071832;28;20043;-69
2021/01/16 01:15:26;;;;;;;15.77;8.17;;;-3.20;52.90;;;;;;5071868;28;20404;-70
2021/01/16 01:18:00;;;;;;;16.80;8.83;;;-3.20;52.80;;;;;;5054887;28;20044;-70
2021/01/16 01:20:26;;;;;;;17.20;8.30;;;-3.20;52.90;;;;;;5054909;28;20573;-70
2021/01/16 01:22:52;;;;;;;16.73;8.23;;;-3.20;52.70;;;;;;5071526;28;20033;-70
2021/01/16 01:25:19;;;;;;;19.57;8.97;;;-3.20;52.70;;;;;;5071490;28;20067;-70
2021/01/16 01:27:58;;;;;;;17.17;8.37;;;-3.20;52.70;;;;;;5072007;28;20435;-71
2021/01/16 01:30:26;;;;;;;15.83;8.23;;;-3.30;52.80;;;;;;5054948;28;20070;-71
2021/01/16 01:32:53;;;;;;;14.47;8.40;;;-3.30;52.80;;;;;;5054995;28;20033;-72
2021/01/16 01:35:20;;;;;;;16.87;8.97;;;-3.20;52.70;;;;;;5055367;28;20039;-75
2021/01/16 01:37:49;;;;;;;16.53;8.63;;;-3.20;52.60;;;;;;5072148;28;20493;-72
2021/01/16 01:40:18;;;;;;;15.35;8.50;;;-3.30;52.60;;;;;;5071633;28;20098;-72
2021/01/16 01:42:51;;;;;;;18.63;9.07;;;-3.30;52.50;;;;;;5071485;28;20067;-72
2021/01/16 01:45:18;;;;;;;16.13;8.50;;;-3.30;52.50;;;;;;5072545;28;20047;-70
2021/01/16 01:47:46;;;;;;;19.40;8.70;;;-3.30;52.50;;;;;;5071539;28;20037;-71
2021/01/16 01:50:14;;;;;;;16.57;7.97;;;-3.30;52.50;;;;;;5071520;28;20411;-72
2021/01/16 01:52:41;;;;;;;16.80;8.00;;;-3.30;52.50;;;;;;5068575;28;20052;-71
2021/01/16 01:55:09;;;;;;;17.90;8.27;;;-3.30;52.50;;;;;;5052820;28;20033;-72
2021/01/16 01:57:43;;;;;;;15.67;7.50;;;-3.20;52.50;;;;;;5034682;28;20041;-70
2021/01/16 02:00:12;;;;;;;16.43;8.60;;;-3.30;52.40;;;;;;5023065;28;20350;-73
2021/01/16 02:02:40;;;;;;;15.60;7.90;;;-3.20;52.40;;;;;;5041657;28;20075;-70
2021/01/16 02:05:08;;;;;;;16.93;8.00;;;-3.20;52.30;;;;;;5041240;28;20066;-71
2021/01/16 02:07:37;;;;;;;16.70;8.33;;;-3.20;52.20;;;;;;5041322;28;20455;-71
2021/01/16 02:10:20;;;;;;;15.27;7.87;;;-3.30;52.20;;;;;;5058884;28;20037;-70
2021/01/16 02:12:46;;;;;;;15.77;7.60;;;-3.30;52.30;;;;;;5041344;28;20497;-71
2021/01/16 02:15:27;;;;;;;18.97;9.00;;;-3.30;52.30;;;;;;5041421;28;20051;-70
2021/01/16 02:18:33;;;;;;;14.27;7.93;;;-3.30;52.30;;;;;;5059247;28;20056;-72
2021/01/16 02:21:02;;;;;;;13.60;7.20;;;-3.30;52.30;;;;;;5041113;28;20033;-71
2021/01/16 02:23:27;;;;;;;18.10;8.93;;;-3.20;52.30;;;;;;5041162;28;20040;-73
2021/01/16 02:26:15;;;;;;;17.23;8.00;;;-3.30;52.20;;;;;;5040913;28;20025;-72
2021/01/16 02:28:47;;;;;;;16.17;8.23;;;-3.30;52.20;;;;;;5041050;28;20033;-70
2021/01/16 02:31:15;;;;;;;14.93;7.57;;;-3.30;52.20;;;;;;5040803;28;20099;-73
2021/01/16 02:33:43;;;;;;;15.10;7.53;;;-3.30;52.30;;;;;;5040940;28;20036;-72
2021/01/16 02:36:32;;;;;;;13.90;7.80;;;-3.30;52.30;;;;;;5024296;28;20045;-76
2021/01/16 02:39:28;;;;;;;13.40;7.27;;;-3.30;52.40;;;;;;5041280;28;20520;-71
2021/01/16 02:42:19;;;;;;;12.90;6.10;;;-3.30;52.30;;;;;;5024555;28;20033;-71
2021/01/16 02:45:18;;;;;;;15.90;7.17;;;-3.30;52.30;;;;;;5041215;28;20036;-73
2021/01/16 02:48:01;;;;;;;14.10;7.17;;;-3.30;52.30;;;;;;5040219;28;20045;-70
2021/01/16 02:50:29;;;;;;;15.20;8.00;;;-3.30;52.20;;;;;;5041231;28;20033;-70
2021/01/16 02:52:59;;;;;;;13.50;7.03;;;-3.40;52.30;;;;;;5032502;28;20049;-73
2021/01/16 02:55:25;;;;;;;13.05;7.00;;;-3.40;52.30;;;;;;5077542;28;20028;-71
2021/01/16 02:57:51;;;;;;;15.80;8.00;;;-3.40;52.50;;;;;;5077442;28;20036;-70
2021/01/16 03:00:20;;;;;;;14.60;7.53;;;-3.40;52.60;;;;;;5077570;28;20047;-70
2021/01/16 03:02:46;;;;;;;16.23;7.87;;;-3.40;52.50;;;;;;5077785;28;20119;-73
2021/01/16 03:05:12;;;;;;;16.97;7.87;;;-3.40;52.50;;;;;;5077416;28;20033;-70
2021/01/16 03:07:42;;;;;;;13.63;8.27;;;-3.40;52.50;;;;;;5060617;28;20048;-70
2021/01/16 03:10:10;;;;;;;15.05;7.30;;;-3.40;52.50;;;;;;5076582;28;20047;-69
2021/01/16 03:12:37;;;;;;;13.67;6.80;;;-3.40;52.40;;;;;;5056892;28;20036;-69
2021/01/16 03:15:09;;;;;;;15.30;7.00;;;-3.40;52.40;;;;;;5075216;28;20047;-72
2021/01/16 03:17:48;;;;;;;13.50;7.17;;;-3.30;52.30;;;;;;5074461;28;20040;-69
2021/01/16 03:20:20;;;;;;;16.33;6.87;;;-3.40;52.30;;;;;;5074554;28;20067;-72
2021/01/16 03:22:49;;;;;;;13.33;7.00;;;-3.40;52.40;;;;;;5057528;28;20032;-71
2021/01/16 03:25:18;;;;;;;14.03;7.13;;;-3.30;52.40;;;;;;5074015;28;20040;-71
2021/01/16 03:27:44;;;;;;;15.37;7.17;;;-3.30;52.30;;;;;;5074880;28;20545;-74
2021/01/16 03:30:11;;;;;;;13.90;6.73;;;-3.30;52.40;;;;;;5073785;28;20036;-72
2021/01/16 03:32:37;;;;;;;14.27;7.53;;;-3.30;52.30;;;;;;5073874;28;20400;-72
2021/01/16 03:35:04;;;;;;;13.63;7.13;;;-3.40;52.30;;;;;;5074811;28;20029;-73
2021/01/16 03:37:30;;;;;;;14.13;7.37;;;-3.40;52.30;;;;;;5073748;28;20485;-73
2021/01/16 03:39:56;;;;;;;12.13;6.97;;;-3.40;52.50;;;;;;5056994;28;20131;-72
2021/01/16 03:42:22;;;;;;;14.67;7.63;;;-3.40;52.40;;;;;;5056842;28;20467;-70
2021/01/16 03:44:49;;;;;;;14.70;7.53;;;-3.30;52.50;;;;;;5073326;28;20032;-77
2021/01/16 03:47:14;;;;;;;11.23;6.17;;;-3.30;52.40;;;;;;5073409;28;20496;-74
2021/01/16 03:49:40;;;;;;;21.23;7.63;;;-3.40;52.50;;;;;;5073481;28;20075;-71
2021/01/16 03:52:07;;;;;;;14.93;8.50;;;-3.30;52.50;;;;;;5073843;28;20106;-69
2021/01/16 03:54:33;;;;;;;14.30;7.53;;;-3.30;52.50;;;;;;5073197;28;20087;-70
2021/01/16 03:56:59;;;;;;;12.53;7.07;;;-3.30;52.40;;;;;;5072983;28;20045;-72
2021/01/16 03:59:25;;;;;;;12.93;7.33;;;-3.30;52.30;;;;;;5040419;28;20093;-75
2021/01/16 04:01:51;;;;;;;13.77;7.23;;;-3.30;52.30;;;;;;5056440;28;20451;-72
2021/01/16 04:04:17;;;;;;;13.30;7.83;;;-3.30;52.30;;;;;;5072930;28;20126;-71
2021/01/16 04:06:43;;;;;;;13.97;8.43;;;-3.20;52.40;;;;;;5072765;28;20036;-71
2021/01/16 04:09:09;;;;;;;15.25;7.88;;;-3.30;52.20;;;;;;5072947;28;20035;-72
2021/01/16 04:11:35;;;;;;;12.13;7.10;;;-3.30;52.20;;;;;;5072777;28;20482;-69
2021/01/16 04:14:01;;;;;;;14.13;7.13;;;-3.30;52.30;;;;;;5056850;28;20029;-70
2021/01/16 04:16:28;;;;;;;12.40;6.70;;;-3.30;52.30;;;;;;5074177;28;20055;-69
2021/01/16 04:18:55;;;;;;;11.73;6.67;;;-3.30;52.10;;;;;;5056171;28;20135;-70
2021/01/16 04:21:22;;;;;;;12.63;7.13;;;-3.30;52.20;;;;;;5056207;28;20044;-75
2021/01/16 04:23:48;;;;;;;16.60;9.33;;;-3.30;52.20;;;;;;5038414;28;20032;-72
2021/01/16 04:26:14;;;;;;;14.10;7.53;;;-3.30;52.20;;;;;;5073690;28;20447;-70
2021/01/16 04:28:40;;;;;;;13.00;7.70;;;-3.30;52.10;;;;;;5074531;28;20119;-71
2021/01/16 04:31:06;;;;;;;15.20;7.27;;;-3.30;52.00;;;;;;5073629;28;20048;-70
2021/01/16 04:33:32;;;;;;;15.23;7.80;;;-3.30;52.10;;;;;;5072829;28;20412;-71
2021/01/16 04:35:58;;;;;;;13.60;6.77;;;-3.30;52.00;;;;;;5055865;28;20534;-71
2021/01/16 04:38:24;;;;;;;14.73;7.77;;;-3.30;52.10;;;;;;5072478;28;20032;-71
2021/01/16 04:40:50;;;;;;;14.80;7.10;;;-3.30;52.10;;;;;;5072328;28;20496;-76
2021/01/16 04:43:16;;;;;;;16.17;7.37;;;-3.40;52.00;;;;;;5055713;28;20534;-71
2021/01/16 04:45:44;;;;;;;13.10;7.00;;;-3.40;52.10;;;;;;5073665;28;20036;-70
2021/01/16 04:48:11;;;;;;;17.50;8.80;;;-3.40;52.00;;;;;;5055528;28;20036;-72
2021/01/16 04:50:39;;;;;;;17.20;8.37;;;-3.40;52.00;;;;;;5072181;28;20040;-70
2021/01/16 04:53:09;;;;;;;16.57;8.43;;;-3.40;52.00;;;;;;5071979;28;20548;-72
2021/01/16 04:55:37;;;;;;;16.23;7.73;;;-3.40;52.10;;;;;;5055480;28;20039;-73
2021/01/16 04:58:12;;;;;;;15.83;8.33;;;-3.40;52.00;;;;;;5055827;28;20119;-71
2021/01/16 05:00:40;;;;;;;15.23;7.88;;;-3.30;52.00;;;;;;5055919;28;20040;-69
2021/01/16 05:03:12;;;;;;;15.03;7.70;;;-3.30;51.80;;;;;;5055576;28;20040;-71
2021/01/16 05:05:43;;;;;;;14.87;7.40;;;-3.20;51.90;;;;;;5073106;28;20525;-70
2021/01/16 05:08:10;;;;;;;12.83;7.13;;;-3.20;51.90;;;;;;5071805;28;20102;-71
2021/01/16 05:10:41;;;;;;;14.40;7.17;;;-3.20;51.80;;;;;;5055251;28;20033;-71
2021/01/16 05:13:16;;;;;;;16.03;6.97;;;-3.20;51.80;;;;;;5072091;28;20041;-72
2021/01/16 05:15:45;;;;;;;13.30;7.43;;;-3.20;51.70;;;;;;5055117;28;20060;-71
2021/01/16 05:18:13;;;;;;;13.60;7.33;;;-3.20;52.30;;;;;;5072864;28;20040;-75
2021/01/16 05:20:41;;;;;;;12.37;6.83;;;-3.20;51.80;;;;;;5071934;28;20032;-70
2021/01/16 05:23:17;;;;;;;14.03;7.17;;;-3.20;51.80;;;;;;5073431;28;20107;-71
2021/01/16 05:25:46;;;;;;;14.57;6.90;;;-3.10;51.90;;;;;;5072148;28;20039;-75
2021/01/16 05:28:15;;;;;;;12.70;6.57;;;-3.20;51.70;;;;;;5071880;28;20048;-69
2021/01/16 05:31:03;;;;;;;13.70;7.00;;;-3.20;51.60;;;;;;5071675;28;20032;-72
2021/01/16 05:33:39;;;;;;;16.00;7.47;;;-3.20;51.70;;;;;;5071742;28;20033;-72
2021/01/16 05:36:09;;;;;;;15.10;7.07;;;-3.20;51.80;;;;;;5071876;28;20063;-70
2021/01/16 05:38:40;;;;;;;12.17;6.23;;;-3.20;51.90;;;;;;5071262;28;20032;-74
2021/01/16 05:41:08;;;;;;;15.67;7.77;;;-3.20;51.80;;;;;;5071520;28;20492;-70
2021/01/16 05:43:36;;;;;;;17.50;6.63;;;-3.20;51.70;;;;;;5071398;28;20479;-70
2021/01/16 05:46:04;;;;;;;12.23;6.07;;;-3.20;51.70;;;;;;5072478;28;20090;-70
2021/01/16 05:48:32;;;;;;;12.20;6.53;;;-3.20;51.70;;;;;;5071827;28;20044;-72
2021/01/16 05:51:00;;;;;;;13.43;7.07;;;-3.20;51.60;;;;;;5071193;28;20040;-70
2021/01/16 05:53:27;;;;;;;11.80;6.47;;;-3.20;51.60;;;;;;5071179;28;20504;-73
2021/01/16 05:55:54;;;;;;;12.43;7.00;;;-3.20;51.60;;;;;;5072343;28;20119;-73
2021/01/16 05:58:21;;;;;;;12.60;6.50;;;-3.20;51.50;;;;;;5071264;28;20119;-72
2021/01/16 06:00:50;;;;;;;13.67;6.57;;;-3.20;51.60;;;;;;5071111;28;20041;-71
2021/01/16 06:03:18;;;;;;;12.13;6.20;;;-3.20;51.60;;;;;;5072531;28;20035;-70
2021/01/16 06:05:49;;;;;;;13.53;7.17;;;-3.20;51.60;;;;;;5054323;28;20037;-70
2021/01/16 06:08:16;;;;;;;15.50;6.60;;;-3.20;52.20;;;;;;5071622;28;20381;-70
2021/01/16 06:10:44;;;;;;;12.90;6.50;;;-3.20;51.60;;;;;;5072078;28;20131;-72
2021/01/16 06:13:23;;;;;;;11.73;6.13;;;-3.20;51.60;;;;;;5071226;28;20029;-73
2021/01/16 06:15:51;;;;;;;14.93;6.37;;;-3.20;51.50;;;;;;5054568;28;20059;-71
2021/01/16 06:18:32;;;;;;;12.33;6.13;;;-3.20;51.50;;;;;;5054305;28;20036;-70
2021/01/16 06:20:58;;;;;;;10.77;5.20;;;-3.20;51.60;;;;;;5054450;28;20568;-71
2021/01/16 06:23:25;;;;;;;11.90;5.93;;;-3.30;51.70;;;;;;5071989;28;20123;-71
2021/01/16 06:25:54;;;;;;;17.43;6.53;;;-3.40;51.70;;;;;;5077162;28;20493;-70
2021/01/16 06:28:26;;;;;;;12.27;6.10;;;-3.40;51.70;;;;;;5071096;28;20032;-71
2021/01/16 06:30:57;;;;;;;12.90;6.53;;;-3.40;51.80;;;;;;5072118;28;20515;-70
2021/01/16 06:33:26;;;;;;;11.40;6.53;;;-3.40;51.80;;;;;;5070828;28;20095;-73
2021/01/16 06:36:04;;;;;;;11.60;6.63;;;-3.50;52.50;;;;;;5070726;28;20058;-71
2021/01/16 06:38:31;;;;;;;13.50;7.03;;;-3.50;51.90;;;;;;5054260;28;20064;-73
2021/01/16 06:41:14;;;;;;;13.03;6.27;;;-3.40;51.90;;;;;;5073812;28;20090;-71
2021/01/16 06:43:45;;;;;;;12.50;6.37;;;-3.40;51.70;;;;;;5063041;28;20070;-70
2021/01/16 06:46:15;;;;;;;10.67;5.50;;;-3.40;51.60;;;;;;5055238;28;20036;-71
2021/01/16 06:48:45;;;;;;;10.80;6.10;;;-3.40;51.50;;;;;;5075116;28;20036;-70
2021/01/16 06:51:26;;;;;;;13.53;7.27;;;-3.40;51.50;;;;;;5074334;28;20162;-73
2021/01/16 06:53:52;;;;;;;12.03;6.23;;;-3.40;51.50;;;;;;5074567;28;20056;-71
2021/01/16 06:56:26;;;;;;;11.07;5.90;;;-3.40;51.30;;;;;;5074275;28;20519;-71
2021/01/16 06:58:55;;;;;;;12.13;5.67;;;-3.40;51.40;;;;;;5057685;28;20074;-75
2021/01/16 07:01:32;;;;;;;18.07;6.67;;;-3.40;51.20;;;;;;5074205;28;20035;-72
2021/01/16 07:04:00;;;;;;;12.10;6.37;;;-3.40;51.20;;;;;;5075690;28;20067;-74
2021/01/16 07:06:26;;;;;;;13.20;6.13;;;-3.50;51.10;;;;;;5074297;28;20046;-71
2021/01/16 07:08:53;;;;;;;11.17;6.23;;;-3.40;51.30;;;;;;5075532;28;20066;-70
2021/01/16 07:11:20;;;;;;;11.70;6.07;;;-3.40;51.30;;;;;;5075288;28;20056;-70
2021/01/16 07:13:49;;;;;;;12.67;6.13;;;-3.40;51.20;;;;;;5074122;28;20500;-72
2021/01/16 07:16:17;;;;;;;11.70;5.67;;;-3.50;51.10;;;;;;5075685;28;20412;-73
2021/01/16 07:18:45;;;;;;;12.03;6.07;;;-3.50;51.30;;;;;;5075356;28;20131;-72
2021/01/16 07:21:11;;;;;;;14.57;6.40;;;-3.60;51.30;;;;;;5073943;28;20032;-73
2021/01/16 07:23:38;;;;;;;10.87;6.00;;;-3.50;51.50;;;;;;5075550;28;20032;-74
2021/01/16 07:26:04;;;;;;;14.17;5.90;;;-3.50;51.30;;;;;;5057342;28;20040;-75
2021/01/16 07:28:33;;;;;;;11.73;5.80;;;-3.50;51.30;;;;;;5083166;28;20533;-72
2021/01/16 07:30:59;;;;;;;12.03;5.23;;;-3.50;51.20;;;;;;5057118;28;20517;-71
2021/01/16 07:33:29;;;;;;;13.83;6.77;;;-3.40;51.30;;;;;;5073721;28;20520;-70
2021/01/16 07:36:03;;;;;;;11.50;5.77;;;-3.30;52.00;;;;;;5056943;28;20036;-72
2021/01/16 07:38:31;;;;;;;14.00;6.20;;;-3.30;53.10;;;;;;5073671;28;20484;-73
2021/01/16 07:40:58;;;;;;;11.47;6.33;;;-3.30;54.40;;;;;;5073795;28;20051;-70
2021/01/16 07:43:39;;;;;;;12.17;6.23;;;-3.30;55.40;;;;;;5075023;28;20040;-71
2021/01/16 07:46:10;;;;;;;11.10;5.87;;;-3.30;56.00;;;;;;5074729;28;20390;-70
2021/01/16 07:48:49;;;;;;;9.50;5.60;;;-3.30;56.40;;;;;;5074643;28;20069;-75
2021/01/16 07:51:18;;;;;;;10.80;6.20;;;-3.30;56.80;;;;;;5073501;28;20044;-73
2021/01/16 07:53:45;;;;;;;12.87;5.93;;;-3.30;57.40;;;;;;5063355;28;20190;-74
2021/01/16 07:56:21;;;;;;;14.17;6.40;;;-3.40;57.80;;;;;;5083702;28;20119;-88
2021/01/16 07:59:07;;;;;;;13.77;6.27;;;-3.40;58.60;;;;;;5071805;28;20493;-76
2021/01/16 08:01:41;;;;;;;;;;;-3.40;59.10;;;;;;5073169;28;20041;-78
2021/01/16 08:04:23;;;;;;;13.87;6.80;;;-3.40;59.60;;;;;;5071677;28;20379;-76
2021/01/16 08:07:06;;;;;;;11.73;6.00;;;-3.30;60.10;;;;;;5071808;28;20041;-76
2021/01/16 08:09:51;;;;;;;14.77;6.03;;;-3.30;60.20;;;;;;5072172;28;20037;-78
2021/01/16 08:12:18;;;;;;;13.37;6.50;;;-3.30;60.50;;;;;;5073493;28;20040;-81
2021/01/16 08:14:46;;;;;;;13.27;6.53;;;-3.30;60.60;;;;;;5071792;28;20039;-75
2021/01/16 08:17:18;;;;;;;14.67;6.43;;;-3.30;60.60;;;;;;5079273;28;20036;-77
2021/01/16 08:19:48;;;;;;;33.27;9.90;;;-3.30;60.70;;;;;;5092399;28;20043;-79
2021/01/16 08:22:16;;;;;;;13.60;7.27;;;-3.30;60.80;;;;;;5075448;28;20036;-79
2021/01/16 08:25:03;;;;;;;15.10;6.30;;;-3.30;61.00;;;;;;5093834;28;20039;-75
2021/01/16 08:27:31;;;;;;;12.97;6.13;;;-3.30;61.50;;;;;;5056501;28;20055;-76
2021/01/16 08:30:04;;;;;;;17.23;6.00;;;-3.30;61.70;;;;;;5074589;28;20058;-75
2021/01/16 08:32:30;;;;;;;11.17;6.00;;;-3.30;61.70;;;;;;5074605;28;20036;-81
2021/01/16 08:35:05;;;;;;;14.50;6.80;;;-3.20;61.80;;;;;;5091014;28;20055;-76
2021/01/16 08:37:36;;;;;;;13.67;6.40;;;-3.20;61.60;;;;;;5074574;28;20040;-75
2021/01/16 08:40:11;;;;;;;11.03;5.90;;;-3.20;61.40;;;;;;5074514;28;20040;-78
2021/01/16 08:42:53;;;;;;;14.43;8.38;;;-3.20;61.50;;;;;;5092473;28;20036;-74
2021/01/16 08:45:20;;;;;;;14.03;6.87;;;-3.20;61.40;;;;;;5080398;28;20037;-77
2021/01/16 08:47:50;;;;;;;12.13;6.50;;;-3.20;61.40;;;;;;5058547;28;20028;-78
2021/01/16 08:50:16;;;;;;;14.80;6.50;;;-3.20;61.50;;;;;;5070928;28;20035;-76
2021/01/16 08:52:43;;;;;;;13.53;6.97;;;-3.20;61.70;;;;;;5067859;28;20147;-75
2021/01/16 08:55:09;;;;;;;13.60;6.43;;;-3.10;62.20;;;;;;5022714;28;20057;-73
2021/01/16 08:57:39;;;;;;;13.90;6.57;;;-3.20;62.80;;;;;;5051704;28;20120;-77
2021/01/16 09:00:24;;;;;;;14.60;6.63;;;-3.20;63.40;;;;;;5033439;28;20033;-75
2021/01/16 09:03:20;;;;;;;13.30;6.43;;;-3.20;64.00;;;;;;5034036;28;20041;-74
2021/01/16 09:05:59;;;;;;;13.73;6.38;;;-3.20;65.20;;;;;;5050313;28;20036;-86
2021/01/16 09:08:27;;;;;;;12.60;6.30;;;-3.10;66.60;;;;;;5047446;28;20045;-76
2021/01/16 09:11:09;;;;;;;10.97;6.47;;;-3.00;66.10;;;;;;5051651;28;20033;-75
2021/01/16 09:13:44;;;;;;;12.73;6.17;;;-2.90;66.00;;;;;;5033866;28;20502;-75
2021/01/16 09:16:35;;;;;;;13.50;7.23;;;-2.90;65.80;;;;;;5017223;28;20029;-77
2021/01/16 09:19:03;;;;;;;14.13;6.63;;;-2.80;65.50;;;;;;5033796;28;20044;-77
2021/01/16 09:21:30;;;;;;;13.52;6.97;;;-2.80;65.00;;;;;;5017174;28;20127;-79
2021/01/16 09:23:57;;;;;;;12.13;6.30;;;-2.80;64.60;;;;;;5016937;28;20051;-77
2021/01/16 09:26:26;;;;;;;11.60;6.50;;;-2.80;64.20;;;;;;5052588;28;20028;-82
2021/01/16 09:29:01;;;;;;;14.50;7.13;;;-2.80;63.70;;;;;;5037540;28;20050;-78
2021/01/16 09:31:38;;;;;;;12.70;6.27;;;-2.90;63.50;;;;;;5054445;28;20036;-76
2021/01/16 09:34:20;;;;;;;15.07;6.70;;;-2.80;63.10;;;;;;5053390;28;20033;-77
2021/01/16 09:36:49;;;;;;;13.27;6.40;;;-2.80;62.70;;;;;;5053609;28;20040;-80
2021/01/16 09:39:19;;;;;;;14.77;6.97;;;-2.80;62.30;;;;;;5047353;28;20047;-80
2021/01/16 09:41:48;;;;;;;16.47;6.63;;;-2.80;62.00;;;;;;5044642;28;20033;-77
2021/01/16 09:44:35;;;;;;;12.37;6.20;;;-2.80;61.60;;;;;;5071222;28;20064;-80
2021/01/16 09:47:01;;;;;;;14.60;7.15;;;-2.80;61.20;;;;;;5051854;28;20041;-77
2021/01/16 09:49:43;;;;;;;12.63;6.57;;;-2.80;61.00;;;;;;5033170;28;20037;-78
2021/01/16 09:52:10;;;;;;;18.37;7.87;;;-2.80;60.70;;;;;;5017091;28;20040;-81
2021/01/16 09:54:36;;;;;;;12.93;6.50;;;-2.80;60.40;;;;;;5051332;28;20060;-78
2021/01/16 09:57:05;;;;;;;12.23;6.60;;;-2.70;60.20;;;;;;5033730;28;20041;-75
2021/01/16 09:59:31;;;;;;;14.03;6.77;;;-2.70;60.00;;;;;;5033080;28;20036;-76
2021/01/16 10:02:15;;;;;;;14.20;6.90;;;-2.70;59.80;;;;;;5033127;28;20600;-78
2021/01/16 10:04:45;;;;;;;13.43;6.60;;;-2.70;59.60;;;;;;5033259;28;20132;-75
2021/01/16 10:07:16;;;;;;;12.90;6.67;;;-2.70;59.40;;;;;;5051116;28;20064;-77
2021/01/16 10:09:49;;;;;;;14.00;7.13;;;-2.60;59.20;;;;;;5033247;28;20082;-76
2021/01/16 10:12:33;;;;;;;12.70;6.53;;;-2.60;59.00;;;;;;5032847;28;20029;-77
2021/01/16 10:15:04;;;;;;;12.70;6.07;;;-2.60;58.90;;;;;;5050756;28;20036;-74
2021/01/16 10:17:32;;;;;;;16.08;7.68;;;-2.60;58.80;;;;;;5050613;28;20044;-77
2021/01/16 10:20:08;;;;;;;12.60;6.65;;;-2.60;58.60;;;;;;5033701;28;20528;-76
2021/01/16 10:22:35;;;;;;;12.53;6.83;;;-2.60;59.10;;;;;;5037212;28;20033;-77
2021/01/16 10:25:10;;;;;;;12.60;6.17;;;-2.60;58.20;;;;;;5020491;28;20069;-77
2021/01/16 10:27:42;;;;;;;13.67;6.97;;;-2.60;58.00;;;;;;5037137;28;20136;-77
2021/01/16 10:30:19;;;;;;;15.17;6.80;;;-2.60;58.10;;;;;;5054663;28;20082;-74
2021/01/16 10:32:46;;;;;;;14.13;7.07;;;-2.60;57.90;;;;;;5036881;28;20029;-76
2021/01/16 10:35:30;;;;;;;12.63;6.93;;;-2.60;57.80;;;;;;5037071;28;20043;-76
2021/01/16 10:37:58;;;;;;;14.70;7.20;;;-2.60;57.70;;;;;;5037021;28;20552;-75
2021/01/16 10:40:25;;;;;;;13.97;6.67;;;-2.60;57.50;;;;;;5037020;28;20102;-74
2021/01/16 10:42:56;;;;;;;15.33;6.57;;;-2.60;57.50;;;;;;5020527;28;20500;-74
2021/01/16 10:45:30;;;;;;;14.80;7.20;;;-2.60;57.40;;;;;;5055664;28;20511;-75
2021/01/16 10:48:11;;;;;;;14.20;6.93;;;-2.70;57.30;;;;;;5037810;28;20501;-74
2021/01/16 10:50:37;;;;;;;15.93;7.13;;;-2.60;57.00;;;;;;5037958;28;20040;-76
2021/01/16 10:53:06;;;;;;;13.80;6.70;;;-2.60;56.40;;;;;;5031972;28;20056;-76
2021/01/16 10:55:55;;;;;;;16.57;7.30;;;-2.70;56.30;;;;;;5074686;28;20449;-78
2021/01/16 10:58:23;;;;;;;16.23;7.63;;;-2.80;56.20;;;;;;5074299;28;20516;-72
2021/01/16 11:00:53;;;;;;;13.15;7.10;;;-2.80;55.90;;;;;;5074569;28;20045;-73
2021/01/16 11:03:21;;;;;;;14.77;7.20;;;-2.90;55.80;;;;;;5074350;28;20036;-76
2021/01/16 11:05:51;;;;;;;12.00;6.47;;;-2.90;55.70;;;;;;5074361;28;20111;-72
2021/01/16 11:08:27;;;;;;;13.53;6.80;;;-3.00;55.60;;;;;;5058012;28;20408;-73
2021/01/16 11:10:53;;;;;;;17.10;7.30;;;-3.00;55.70;;;;;;5074306;28;20064;-71
2021/01/16 11:13:31;;;;;;;15.23;6.80;;;-3.00;55.50;;;;;;5073806;28;20420;-72
2021/01/16 11:16:24;;;;;;;15.73;7.07;;;-3.00;55.40;;;;;;5073939;28;20028;-73
2021/01/16 11:18:51;;;;;;;14.93;7.33;;;-3.10;55.30;;;;;;5072698;28;20134;-75
2021/01/16 11:21:35;;;;;;;13.13;6.63;;;-3.10;55.00;;;;;;5083260;28;20039;-71
2021/01/16 11:24:34;;;;;;;11.70;5.47;;;-3.10;55.10;;;;;;5094304;28;20126;-71
2021/01/16 11:27:09;;;;;;;18.17;7.40;;;-3.10;54.80;;;;;;5092816;28;20476;-71
2021/01/16 11:29:41;;;;;;;13.53;7.13;;;-3.20;55.10;;;;;;5093985;28;20024;-72
2021/01/16 11:32:14;;;;;;;14.50;6.60;;;-3.00;55.20;;;;;;5074863;28;20492;-76
2021/01/16 11:35:03;;;;;;;13.60;6.10;;;-3.10;55.00;;;;;;5092015;28;20028;-76
2021/01/16 11:37:55;;;;;;;13.13;6.03;;;-3.00;55.10;;;;;;5073658;28;20048;-75
2021/01/16 11:40:36;;;;;;;14.20;6.50;;;-2.90;56.20;;;;;;5071916;28;20037;-77
2021/01/16 11:43:07;;;;;;;16.30;6.53;;;-2.80;57.90;;;;;;5055262;28;20044;-74
2021/01/16 11:45:33;;;;;;;13.23;6.13;;;-2.80;60.00;;;;;;5072210;28;20070;-72
2021/01/16 11:48:01;;;;;;;15.00;7.03;;;-2.70;61.30;;;;;;5088716;28;20062;-73
2021/01/16 11:50:30;;;;;;;18.27;6.90;;;-2.60;62.50;;;;;;5075600;28;20028;-71
2021/01/16 11:52:56;;;;;;;15.18;6.63;;;-2.60;63.30;;;;;;5073538;28;20056;-74
2021/01/16 11:55:22;;;;;;;13.70;6.47;;;-2.50;63.90;;;;;;5092321;28;20497;-78
2021/01/16 11:57:49;;;;;;;17.47;7.33;;;-2.50;64.90;;;;;;5075028;28;20125;-74
2021/01/16 12:00:16;;;;;;;12.90;6.27;;;-2.50;64.50;;;;;;5092161;28;20039;-76
2021/01/16 12:02:51;;;;;;;18.70;6.90;;;-2.50;64.80;;;;;;5093001;28;20036;-74
2021/01/16 12:05:19;;;;;;;17.30;7.00;;;-2.40;65.10;;;;;;5075090;28;20035;-73
2021/01/16 12:08:06;;;;;;;16.53;6.90;;;-2.40;65.30;;;;;;5075191;28;20169;-75
2021/01/16 12:10:35;;;;;;;18.70;6.97;;;-2.30;65.50;;;;;;5075167;28;20036;-74
2021/01/16 12:13:09;;;;;;;20.73;7.93;;;-2.30;65.60;;;;;;5091764;28;20032;-77
2021/01/16 12:15:34;;;;;;;15.33;6.03;;;-2.30;65.70;;;;;;5092999;28;20051;-74
2021/01/16 12:18:02;;;;;;;16.13;6.90;;;-2.20;65.90;;;;;;5091109;28;20491;-78
2021/01/16 12:20:28;;;;;;;18.37;6.90;;;-2.20;66.00;;;;;;5093360;28;20187;-74
2021/01/16 12:22:57;;;;;;;17.20;6.97;;;-2.20;66.10;;;;;;5092444;28;20036;-72
2021/01/16 12:25:32;;;;;;;18.13;6.17;;;-2.20;66.20;;;;;;5093103;28;20070;-74
2021/01/16 12:27:59;;;;;;;17.85;6.10;;;-2.20;66.10;;;;;;5091841;28;20402;-76
2021/01/16 12:30:36;;;;;;;19.97;6.63;;;-2.20;66.20;;;;;;5091523;28;20032;-83
2021/01/16 12:33:03;;;;;;;18.13;7.07;;;-2.20;66.20;;;;;;5092684;28;20032;-77
2021/01/16 12:35:29;;;;;;;18.10;7.30;;;-2.20;67.40;;;;;;5093105;28;20111;-78
2021/01/16 12:37:56;;;;;;;19.27;7.23;;;-2.20;68.90;;;;;;5074855;28;20036;-79
2021/01/16 12:40:24;;;;;;;21.52;6.72;;;-2.20;69.80;;;;;;5075567;28;20139;-78
2021/01/16 12:42:50;;;;;;;22.65;7.63;;;-2.20;70.30;;;;;;5069296;28;20555;-78
2021/01/16 12:45:22;;;;;;;21.30;7.75;;;-2.20;70.70;;;;;;5072106;28;20068;-80
2021/01/16 12:47:54;;;;;;;20.15;7.20;;;-2.20;71.20;;;;;;5084595;28;20036;-79
2021/01/16 12:50:23;;;;;;;20.38;6.90;;;-2.20;71.40;;;;;;5075253;28;20028;-76
2021/01/16 12:52:51;;;;;;;25.03;7.37;;;-2.20;71.80;;;;;;5087414;28;20489;-78
2021/01/16 12:55:21;;;;;;;18.40;6.80;;;-2.20;71.30;;;;;;5038191;28;20041;-79
2021/01/16 12:57:49;;;;;;;18.27;7.60;;;-2.30;71.20;;;;;;5042310;28;20033;-84